sensor_id;sensor_type;location;lat;lon;timestamp;temperature;humidity
76239;SHT30;65043;48.392;-4.472;2023-07-16T08:52:25;17.26;76.87
76239;SHT30;65043;48.392;-4.472;2023-07-16T08:55:00;17.47;76.23
76239;SHT30;65043;48.392;-4.472;2023-07-16T08:57:26;17.67;75.41
76239;SHT30;65043;48.392;-4.472;2023-07-16T08:59:55;17.83;74.62
76239;SHT30;65043;48.392;-4.472;2023-07-16T09:02:21;17.96;73.95
76239;SHT30;65043;48.392;-4.472;2023-07-16T09:04:50;18.11;73.54
76239;SHT30;65043;48.392;-4.472;2023-07-16T09:07:20;18.21;73.28
76239;SHT30;65043;48.392;-4.472;2023-07-16T09:09:56;18.27;73.13
76239;SHT30;65043;48.392;-4.472;2023-07-16T09:12:25;18.31;72.21
76239;SHT30;65043;48.392;-4.472;2023-07-16T09:14:51;18.35;71.45
76239;SHT30;65043;48.392;-4.472;2023-07-16T09:17:24;18.38;71.76
76239;SHT30;65043;48.392;-4.472;2023-07-16T09:19:52;18.49;72.12
76239;SHT30;65043;48.392;-4.472;2023-07-16T09:22:20;18.60;72.38
76239;SHT30;65043;48.392;-4.472;2023-07-16T09:25:01;18.66;72.06
76239;SHT30;65043;48.392;-4.472;2023-07-16T09:27:31;18.76;71.74
76239;SHT30;65043;48.392;-4.472;2023-07-16T09:30:01;18.85;71.92
76239;SHT30;65043;48.392;-4.472;2023-07-16T09:32:37;18.93;71.80
76239;SHT30;65043;48.392;-4.472;2023-07-16T09:35:12;19.03;71.76
76239;SHT30;65043;48.392;-4.472;2023-07-16T09:37:40;19.11;71.79
76239;SHT30;65043;48.392;-4.472;2023-07-16T09:40:07;19.13;71.67
76239;SHT30;65043;48.392;-4.472;2023-07-16T09:42:42;19.23;71.42
76239;SHT30;65043;48.392;-4.472;2023-07-16T09:45:18;19.31;70.35
76239;SHT30;65043;48.392;-4.472;2023-07-16T09:47:46;19.37;69.88
76239;SHT30;65043;48.392;-4.472;2023-07-16T09:50:15;19.43;70.36
76239;SHT30;65043;48.392;-4.472;2023-07-16T09:52:45;19.47;70.04
76239;SHT30;65043;48.392;-4.472;2023-07-16T09:55:12;19.51;69.62
76239;SHT30;65043;48.392;-4.472;2023-07-16T09:57:43;19.57;68.59
76239;SHT30;65043;48.392;-4.472;2023-07-16T10:00:11;19.58;68.53
76239;SHT30;65043;48.392;-4.472;2023-07-16T10:02:44;19.61;69.14
76239;SHT30;65043;48.392;-4.472;2023-07-16T10:05:25;19.54;69.23
76239;SHT30;65043;48.392;-4.472;2023-07-16T10:08:00;19.53;69.10
76239;SHT30;65043;48.392;-4.472;2023-07-16T10:10:39;19.47;69.37
76239;SHT30;65043;48.392;-4.472;2023-07-16T10:13:07;19.47;69.52
76239;SHT30;65043;48.392;-4.472;2023-07-16T10:15:50;19.50;69.68
76239;SHT30;65043;48.392;-4.472;2023-07-16T10:18:26;19.55;69.36
76239;SHT30;65043;48.392;-4.472;2023-07-16T10:21:36;19.58;69.53
76239;SHT30;65043;48.392;-4.472;2023-07-16T10:27:26;19.59;69.47
76239;SHT30;65043;48.392;-4.472;2023-07-16T10:29:58;19.61;70.09
76239;SHT30;65043;48.392;-4.472;2023-07-16T10:32:45;19.66;70.14
76239;SHT30;65043;48.392;-4.472;2023-07-16T10:35:15;19.66;69.80
76239;SHT30;65043;48.392;-4.472;2023-07-16T10:37:57;19.68;69.89
76239;SHT30;65043;48.392;-4.472;2023-07-16T10:40:25;19.72;69.67
76239;SHT30;65043;48.392;-4.472;2023-07-16T10:42:53;19.75;69.79
76239;SHT30;65043;48.392;-4.472;2023-07-16T10:45:18;19.75;69.41
76239;SHT30;65043;48.392;-4.472;2023-07-16T10:47:54;19.68;69.78
76239;SHT30;65043;48.392;-4.472;2023-07-16T10:50:22;19.68;70.00
76239;SHT30;65043;48.392;-4.472;2023-07-16T10:52:52;19.64;69.57
76239;SHT30;65043;48.392;-4.472;2023-07-16T10:55:43;19.61;70.29
76239;SHT30;65043;48.392;-4.472;2023-07-16T11:08:02;19.76;70.41
76239;SHT30;65043;48.392;-4.472;2023-07-16T11:10:29;19.78;69.67
76239;SHT30;65043;48.392;-4.472;2023-07-16T11:12:55;19.79;69.46
76239;SHT30;65043;48.392;-4.472;2023-07-16T11:15:33;19.76;69.56
76239;SHT30;65043;48.392;-4.472;2023-07-16T11:18:00;19.72;69.51
76239;SHT30;65043;48.392;-4.472;2023-07-16T11:20:26;19.74;69.95
76239;SHT30;65043;48.392;-4.472;2023-07-16T11:23:11;19.71;70.07
76239;SHT30;65043;48.392;-4.472;2023-07-16T11:31:39;19.81;69.50
76239;SHT30;65043;48.392;-4.472;2023-07-16T11:34:13;19.83;69.42
76239;SHT30;65043;48.392;-4.472;2023-07-16T11:36:38;19.86;69.39
76239;SHT30;65043;48.392;-4.472;2023-07-16T11:39:04;19.95;68.68
76239;SHT30;65043;48.392;-4.472;2023-07-16T11:41:30;19.99;68.55
76239;SHT30;65043;48.392;-4.472;2023-07-16T11:44:00;19.96;68.07
76239;SHT30;65043;48.392;-4.472;2023-07-16T11:46:31;19.92;67.70
76239;SHT30;65043;48.392;-4.472;2023-07-16T11:48:58;19.96;68.51
76239;SHT30;65043;48.392;-4.472;2023-07-16T11:51:24;19.93;68.22
76239;SHT30;65043;48.392;-4.472;2023-07-16T11:53:58;19.89;68.63
76239;SHT30;65043;48.392;-4.472;2023-07-16T11:56:24;19.92;68.08
76239;SHT30;65043;48.392;-4.472;2023-07-16T11:58:49;19.97;68.25
76239;SHT30;65043;48.392;-4.472;2023-07-16T12:01:15;19.96;67.71
76239;SHT30;65043;48.392;-4.472;2023-07-16T12:03:40;20.03;68.23
76239;SHT30;65043;48.392;-4.472;2023-07-16T12:06:06;20.05;68.04
76239;SHT30;65043;48.392;-4.472;2023-07-16T12:08:32;20.09;67.77
76239;SHT30;65043;48.392;-4.472;2023-07-16T12:23:53;20.20;67.64
76239;SHT30;65043;48.392;-4.472;2023-07-16T12:26:22;20.29;68.24
76239;SHT30;65043;48.392;-4.472;2023-07-16T12:28:50;20.32;67.60
76239;SHT30;65043;48.392;-4.472;2023-07-16T12:31:24;20.34;67.07
76239;SHT30;65043;48.392;-4.472;2023-07-16T12:44:31;20.37;67.63
76239;SHT30;65043;48.392;-4.472;2023-07-16T12:54:05;20.41;67.17
76239;SHT30;65043;48.392;-4.472;2023-07-16T13:25:22;20.87;64.33
76239;SHT30;65043;48.392;-4.472;2023-07-16T13:28:18;20.80;64.12
76239;SHT30;65043;48.392;-4.472;2023-07-16T16:05:08;21.77;62.04
76239;SHT30;65043;48.392;-4.472;2023-07-16T16:08:11;21.82;62.24
76239;SHT30;65043;48.392;-4.472;2023-07-16T16:10:44;21.79;62.13
76239;SHT30;65043;48.392;-4.472;2023-07-16T16:13:21;21.82;62.42
76239;SHT30;65043;48.392;-4.472;2023-07-16T16:15:58;21.73;62.43
76239;SHT30;65043;48.392;-4.472;2023-07-16T16:18:25;21.70;62.17
76239;SHT30;65043;48.392;-4.472;2023-07-16T16:20:53;21.73;62.47
76239;SHT30;65043;48.392;-4.472;2023-07-16T16:49:58;21.22;64.23
76239;SHT30;65043;48.392;-4.472;2023-07-16T16:52:27;21.22;64.37
76239;SHT30;65043;48.392;-4.472;2023-07-16T16:54:57;21.19;64.20
76239;SHT30;65043;48.392;-4.472;2023-07-16T16:57:26;21.08;64.17
76239;SHT30;65043;48.392;-4.472;2023-07-16T16:59:57;21.09;64.61
76239;SHT30;65043;48.392;-4.472;2023-07-16T17:02:23;21.04;64.58
76239;SHT30;65043;48.392;-4.472;2023-07-16T17:04:49;20.92;64.32
76239;SHT30;65043;48.392;-4.472;2023-07-16T17:07:15;20.88;64.21
76239;SHT30;65043;48.392;-4.472;2023-07-16T17:09:43;20.87;64.17
76239;SHT30;65043;48.392;-4.472;2023-07-16T17:12:09;20.87;64.24
76239;SHT30;65043;48.392;-4.472;2023-07-16T17:14:37;20.88;64.39
76239;SHT30;65043;48.392;-4.472;2023-07-16T17:17:13;20.90;64.04
76239;SHT30;65043;48.392;-4.472;2023-07-16T17:19:41;20.88;64.08
76239;SHT30;65043;48.392;-4.472;2023-07-16T17:22:07;20.92;64.14
76239;SHT30;65043;48.392;-4.472;2023-07-16T17:24:32;20.84;64.30
76239;SHT30;65043;48.392;-4.472;2023-07-16T17:26:58;20.87;64.30
76239;SHT30;65043;48.392;-4.472;2023-07-16T17:29:24;20.87;64.42
76239;SHT30;65043;48.392;-4.472;2023-07-16T17:31:49;20.78;64.63
76239;SHT30;65043;48.392;-4.472;2023-07-16T17:34:14;20.78;64.85
76239;SHT30;65043;48.392;-4.472;2023-07-16T17:36:42;20.71;65.60
76239;SHT30;65043;48.392;-4.472;2023-07-16T17:39:08;20.70;66.26
76239;SHT30;65043;48.392;-4.472;2023-07-16T17:41:34;20.67;67.08
76239;SHT30;65043;48.392;-4.472;2023-07-16T17:44:02;20.65;68.08
76239;SHT30;65043;48.392;-4.472;2023-07-16T17:46:38;20.65;68.43
76239;SHT30;65043;48.392;-4.472;2023-07-16T17:49:03;20.61;67.90
76239;SHT30;65043;48.392;-4.472;2023-07-16T17:51:30;20.61;67.55
76239;SHT30;65043;48.392;-4.472;2023-07-16T17:53:55;20.61;67.74
76239;SHT30;65043;48.392;-4.472;2023-07-16T17:56:21;20.56;67.54
76239;SHT30;65043;48.392;-4.472;2023-07-16T17:58:52;20.54;68.02
76239;SHT30;65043;48.392;-4.472;2023-07-16T18:01:38;20.56;67.86
76239;SHT30;65043;48.392;-4.472;2023-07-16T18:04:15;20.53;67.53
76239;SHT30;65043;48.392;-4.472;2023-07-16T18:06:49;20.51;67.13
76239;SHT30;65043;48.392;-4.472;2023-07-16T18:09:38;20.53;67.46
76239;SHT30;65043;48.392;-4.472;2023-07-16T18:12:11;20.53;67.10
76239;SHT30;65043;48.392;-4.472;2023-07-16T18:14:57;20.56;65.41
76239;SHT30;65043;48.392;-4.472;2023-07-16T18:17:28;20.60;65.36
76239;SHT30;65043;48.392;-4.472;2023-07-16T18:20:04;20.57;65.18
76239;SHT30;65043;48.392;-4.472;2023-07-16T18:22:58;20.58;65.03
76239;SHT30;65043;48.392;-4.472;2023-07-16T18:25:28;20.63;65.58
76239;SHT30;65043;48.392;-4.472;2023-07-16T18:27:59;20.56;65.13
76239;SHT30;65043;48.392;-4.472;2023-07-16T18:36:23;20.34;63.97
76239;SHT30;65043;48.392;-4.472;2023-07-16T18:38:49;20.32;64.07
76239;SHT30;65043;48.392;-4.472;2023-07-16T18:41:17;20.32;64.34
76239;SHT30;65043;48.392;-4.472;2023-07-16T18:44:01;20.32;64.63
76239;SHT30;65043;48.392;-4.472;2023-07-16T18:46:27;20.33;64.47
76239;SHT30;65043;48.392;-4.472;2023-07-16T19:32:16;20.09;65.00
76239;SHT30;65043;48.392;-4.472;2023-07-16T19:34:51;20.03;64.69
76239;SHT30;65043;48.392;-4.472;2023-07-16T19:37:19;20.00;64.67
76239;SHT30;65043;48.392;-4.472;2023-07-16T19:39:47;19.99;64.81
76239;SHT30;65043;48.392;-4.472;2023-07-16T19:42:18;19.96;64.60
76239;SHT30;65043;48.392;-4.472;2023-07-16T19:44:48;19.95;64.79
76239;SHT30;65043;48.392;-4.472;2023-07-16T19:47:15;19.92;65.01
76239;SHT30;65043;48.392;-4.472;2023-07-16T19:49:48;19.92;64.98
76239;SHT30;65043;48.392;-4.472;2023-07-16T19:52:24;19.90;65.21
76239;SHT30;65043;48.392;-4.472;2023-07-16T19:54:52;19.85;65.58
76239;SHT30;65043;48.392;-4.472;2023-07-16T19:57:21;19.85;65.99
76239;SHT30;65043;48.392;-4.472;2023-07-16T19:59:46;19.81;66.14
76239;SHT30;65043;48.392;-4.472;2023-07-16T20:02:12;19.81;66.35
76239;SHT30;65043;48.392;-4.472;2023-07-16T20:08:08;19.78;66.95
76239;SHT30;65043;48.392;-4.472;2023-07-16T20:11:03;19.74;67.22
76239;SHT30;65043;48.392;-4.472;2023-07-16T20:14:04;19.71;67.44
76239;SHT30;65043;48.392;-4.472;2023-07-16T20:16:58;19.68;67.70
76239;SHT30;65043;48.392;-4.472;2023-07-16T20:19:47;19.72;67.79
76239;SHT30;65043;48.392;-4.472;2023-07-16T20:22:48;19.68;67.95
76239;SHT30;65043;48.392;-4.472;2023-07-16T20:25:28;19.65;68.13
76239;SHT30;65043;48.392;-4.472;2023-07-16T20:31:21;19.64;68.22
76239;SHT30;65043;48.392;-4.472;2023-07-16T20:37:31;19.62;68.25
76239;SHT30;65043;48.392;-4.472;2023-07-16T21:58:05;19.28;68.83
76239;SHT30;65043;48.392;-4.472;2023-07-16T22:00:33;19.27;68.80
76239;SHT30;65043;48.392;-4.472;2023-07-16T22:03:12;19.27;68.88
76239;SHT30;65043;48.392;-4.472;2023-07-16T22:05:43;19.27;68.97
76239;SHT30;65043;48.392;-4.472;2023-07-16T22:08:13;19.30;68.85
76239;SHT30;65043;48.392;-4.472;2023-07-16T22:10:54;19.31;68.75
76239;SHT30;65043;48.392;-4.472;2023-07-16T22:13:30;19.31;68.91
76239;SHT30;65043;48.392;-4.472;2023-07-16T22:16:06;19.30;68.82
76239;SHT30;65043;48.392;-4.472;2023-07-16T22:18:50;19.28;68.97
76239;SHT30;65043;48.392;-4.472;2023-07-16T22:21:26;19.26;68.95
76239;SHT30;65043;48.392;-4.472;2023-07-16T22:24:17;19.26;69.10
76239;SHT30;65043;48.392;-4.472;2023-07-16T22:27:00;19.26;69.19
76239;SHT30;65043;48.392;-4.472;2023-07-16T23:01:40;19.16;69.18
76239;SHT30;65043;48.392;-4.472;2023-07-16T23:08:06;19.08;69.00
76239;SHT30;65043;48.392;-4.472;2023-07-16T23:17:42;19.07;68.65
76239;SHT30;65043;48.392;-4.472;2023-07-16T23:20:49;19.07;68.66
76239;SHT30;65043;48.392;-4.472;2023-07-16T23:24:00;19.10;68.48
76239;SHT30;65043;48.392;-4.472;2023-07-16T23:34:13;19.04;68.59
76239;SHT30;65043;48.392;-4.472;2023-07-16T23:36:49;19.07;68.69
76239;SHT30;65043;48.392;-4.472;2023-07-16T23:39:14;19.04;68.78
76239;SHT30;65043;48.392;-4.472;2023-07-16T23:42:02;19.04;68.93
76239;SHT30;65043;48.392;-4.472;2023-07-16T23:44:34;19.03;69.07
76239;SHT30;65043;48.392;-4.472;2023-07-16T23:47:32;19.03;69.12
76239;SHT30;65043;48.392;-4.472;2023-07-16T23:50:03;19.06;69.09
76239;SHT30;65043;48.392;-4.472;2023-07-16T23:52:44;19.03;69.24
76239;SHT30;65043;48.392;-4.472;2023-07-16T23:55:45;19.00;69.28
76239;SHT30;65043;48.392;-4.472;2023-07-16T23:58:33;19.00;69.27
